Time;durP1;ratioP1;P1;durP2;ratioP2;P2;SDS_P1;SDS_P2;PMS_P1;PMS_P2;Temp;Humidity;BMP_temperature;BMP_pressure;BME280_temperature;BME280_humidity;BME280_pressure;Samples;Min_cycle;Max_cycle;Signal;HPM_P1;HPM_P2
2022/09/30 00:00:46;;;;;;;11.98;6.40;;;;;;;9.57;66.75;99469.56;10477644;28;20049;-58
2022/09/30 00:05:55;;;;;;;11.63;6.57;;;;;;;9.58;66.92;99469.38;10475396;28;20558;-60
2022/09/30 00:11:00;;;;;;;10.88;6.20;;;;;;;9.62;67.18;99472.53;10477134;28;20075;-58
2022/09/30 00:16:02;;;;;;;10.55;6.57;;;;;;;9.62;67.13;99480.56;10478984;28;20068;-59
2022/09/30 00:21:07;;;;;;;9.85;6.40;;;;;;;9.59;66.86;99481.75;10479860;28;20124;-58
2022/09/30 00:26:17;;;;;;;9.93;6.07;;;;;;;9.56;66.89;99478.63;10480364;28;20072;-60
2022/09/30 00:31:20;;;;;;;10.90;5.90;;;;;;;9.52;66.75;99497.81;10463463;28;20474;-58
2022/09/30 00:36:21;;;;;;;9.93;5.57;;;;;;;9.50;66.90;99488.28;10473446;28;20549;-58
2022/09/30 00:41:23;;;;;;;11.82;5.95;;;;;;;9.42;66.38;99499.13;10482006;28;20041;-60
2022/09/30 00:46:35;;;;;;;11.73;6.03;;;;;;;9.36;67.27;99502.56;10475350;28;20056;-58
2022/09/30 00:51:53;;;;;;;9.75;5.57;;;;;;;9.37;67.06;99494.34;10474196;28;20068;-58
2022/09/30 00:56:57;;;;;;;13.77;5.63;;;;;;;9.41;67.46;99502.84;10478743;28;20056;-59
2022/09/30 01:02:00;;;;;;;9.00;6.53;;;;;;;9.43;67.14;99504.31;10471181;28;20069;-58
2022/09/30 01:07:04;;;;;;;14.73;6.65;;;;;;;9.42;67.08;99505.34;10480603;28;20041;-59
2022/09/30 01:12:09;;;;;;;15.68;8.25;;;;;;;9.41;67.45;99509.03;10484457;28;20060;-58
2022/09/30 01:17:40;;;;;;;14.38;7.22;;;;;;;9.39;67.17;99504.88;10482914;28;20087;-62
2022/09/30 01:22:44;;;;;;;13.10;7.57;;;;;;;9.33;66.94;99501.09;10475747;28;20076;-59
2022/09/30 01:28:03;;;;;;;11.18;7.15;;;;;;;9.27;67.24;99516.09;10485399;28;20045;-62
2022/09/30 01:33:18;;;;;;;13.20;8.00;;;;;;;9.22;67.90;99526.56;10480184;28;20447;-59
2022/09/30 01:38:48;;;;;;;13.02;7.07;;;;;;;9.15;67.49;99514.91;10486105;28;20056;-60
2022/09/30 01:44:07;;;;;;;10.77;7.68;;;;;;;9.18;67.88;99527.09;10484762;28;20072;-58
2022/09/30 01:49:37;;;;;;;13.10;7.00;;;;;;;9.16;67.49;99524.59;10484654;28;20067;-58
2022/09/30 01:54:47;;;;;;;12.98;6.45;;;;;;;9.14;67.62;99523.97;10477393;28;20072;-60
2022/09/30 02:00:02;;;;;;;11.13;6.47;;;;;;;9.09;67.52;99524.53;10481720;28;20075;-58
2022/09/30 02:05:10;;;;;;;13.63;6.78;;;;;;;9.04;67.63;99529.59;10482517;28;20056;-59
2022/09/30 02:10:19;;;;;;;11.57;6.25;;;;;;;8.98;67.12;99525.00;10481894;28;20574;-59
2022/09/30 02:15:27;;;;;;;8.30;6.03;;;;;;;8.95;67.04;99527.25;10477578;28;20040;-60
2022/09/30 02:20:32;;;;;;;11.80;7.00;;;;;;;8.87;67.27;99530.84;10479619;28;20459;-60
2022/09/30 02:25:41;;;;;;;11.02;6.45;;;;;;;8.84;67.23;99529.34;10480707;28;20127;-61
2022/09/30 02:30:48;;;;;;;9.15;5.70;;;;;;;8.81;67.36;99528.91;10481517;28;20178;-60
2022/09/30 02:35:57;;;;;;;13.00;5.97;;;;;;;8.74;67.32;99529.63;10480859;28;20108;-58
2022/09/30 02:41:05;;;;;;;8.65;5.50;;;;;;;8.65;67.51;99540.59;10482762;28;20131;-60
2022/09/30 02:46:09;;;;;;;;;;;;;;;8.56;67.75;99549.75;10479993;28;20466;-59
2022/09/30 02:51:25;;;;;;;11.50;6.78;;;;;;;8.46;68.25;99558.06;10479731;28;19988;-59
2022/09/30 02:56:44;;;;;;;10.75;6.47;;;;;;;8.45;67.91;99549.19;10463129;28;20129;-59
2022/09/30 03:01:46;;;;;;;8.88;6.50;;;;;;;8.43;67.70;99561.94;10477402;28;20135;-59
2022/09/30 03:06:48;;;;;;;12.27;6.45;;;;;;;8.45;67.69;99567.94;10461741;28;20123;-59
2022/09/30 03:11:53;;;;;;;15.18;7.60;;;;;;;8.43;67.88;99569.13;10480540;28;20127;-59
2022/09/30 03:17:07;;;;;;;15.27;8.18;;;;;;;8.44;67.71;99568.13;10480368;28;20068;-58
2022/09/30 03:22:39;;;;;;;12.82;7.05;;;;;;;8.41;68.28;99568.44;10464354;28;20151;-58
2022/09/30 03:27:53;;;;;;;9.10;6.80;;;;;;;8.34;68.47;99571.84;10475894;28;20713;-60
2022/09/30 03:33:23;;;;;;;11.50;7.55;;;;;;;8.36;68.69;99579.72;10464257;28;20055;-58
2022/09/30 03:38:48;;;;;;;8.70;6.90;;;;;;;8.32;68.31;99586.44;10478895;28;20048;-58
2022/09/30 03:44:21;;;;;;;12.15;6.50;;;;;;;8.24;68.52;99583.81;10476354;28;20501;-58
2022/09/30 03:49:27;;;;;;;12.80;7.07;;;;;;;8.23;68.06;99580.28;10470948;28;20051;-60
2022/09/30 03:54:28;;;;;;;12.80;7.15;;;;;;;8.22;68.60;99584.00;10477826;28;20124;-58
2022/09/30 03:59:30;;;;;;;13.77;7.00;;;;;;;8.16;68.31;99584.72;10477965;28;20120;-58
2022/09/30 04:04:31;;;;;;;9.38;6.15;;;;;;;7.95;68.80;99596.06;10479338;28;20512;-58
2022/09/30 04:09:33;;;;;;;13.68;7.20;;;;;;;7.89;68.99;99600.28;10475472;28;20068;-58
2022/09/30 04:14:35;;;;;;;9.80;6.18;;;;;;;7.91;68.48;99600.13;10475775;28;20049;-58
2022/09/30 04:19:38;;;;;;;9.90;7.32;;;;;;;7.90;68.18;99603.81;10476120;28;20058;-58
2022/09/30 04:24:40;;;;;;;10.85;6.38;;;;;;;7.90;68.24;99614.53;10476438;28;20054;-58
2022/09/30 04:29:42;;;;;;;11.23;6.30;;;;;;;7.86;68.06;99606.00;10476405;28;20127;-60
2022/09/30 04:34:43;;;;;;;9.95;6.20;;;;;;;7.83;68.14;99613.56;10482967;28;20135;-59
2022/09/30 04:39:44;;;;;;;14.18;7.05;;;;;;;7.80;68.29;99620.09;10486116;28;20135;-60
2022/09/30 04:44:46;;;;;;;10.10;6.85;;;;;;;7.79;67.82;99621.09;10468586;28;20572;-59
2022/09/30 04:49:48;;;;;;;13.90;7.30;;;;;;;7.74;67.96;99636.81;10481003;28;20124;-59
2022/09/30 04:54:49;;;;;;;14.30;7.85;;;;;;;7.69;67.96;99640.03;10485499;28;20123;-60
2022/09/30 04:59:51;;;;;;;10.40;6.18;;;;;;;7.67;68.68;99642.06;10463981;28;20033;-58
2022/09/30 05:04:54;;;;;;;13.30;6.95;;;;;;;7.65;68.42;99646.75;10483164;28;20135;-58
2022/09/30 05:09:55;;;;;;;13.43;6.43;;;;;;;7.61;68.87;99657.97;10485126;28;20144;-59
2022/09/30 05:14:56;;;;;;;10.95;5.93;;;;;;;7.58;68.25;99658.31;10468467;28;20046;-59
2022/09/30 05:19:58;;;;;;;11.48;6.60;;;;;;;7.54;68.59;99669.38;10478758;28;20135;-58
2022/09/30 05:25:02;;;;;;;10.93;6.68;;;;;;;7.57;68.57;99672.72;10506123;28;20040;-65
2022/09/30 05:30:05;;;;;;;10.68;7.53;;;;;;;7.59;68.06;99686.75;10522062;28;20533;-67
2022/09/30 05:35:08;;;;;;;12.85;9.10;;;;;;;7.58;68.55;99688.56;10524793;28;20037;-67
2022/09/30 05:40:09;;;;;;;16.60;10.27;;;;;;;7.52;68.66;99699.94;10523916;28;20048;-66
2022/09/30 05:45:11;;;;;;;17.75;8.32;;;;;;;7.47;68.97;99708.50;10509708;28;20044;-66
2022/09/30 05:50:12;;;;;;;10.18;6.60;;;;;;;7.49;68.31;99719.03;10517279;28;20040;-65
2022/09/30 05:55:15;;;;;;;13.00;6.65;;;;;;;7.55;68.48;99729.03;10513398;28;20044;-66
2022/09/30 06:00:17;;;;;;;15.65;7.30;;;;;;;7.58;68.70;99735.88;10499595;28;20048;-68
2022/09/30 06:05:20;;;;;;;12.00;6.85;;;;;;;7.58;68.87;99734.03;10487819;28;20060;-67
2022/09/30 06:10:23;;;;;;;13.57;6.75;;;;;;;7.66;68.62;99741.19;10490607;28;20044;-67
2022/09/30 06:15:25;;;;;;;15.07;8.40;;;;;;;7.71;69.19;99747.69;10508701;28;20036;-67
2022/09/30 06:20:27;;;;;;;12.07;5.80;;;;;;;7.75;68.35;99748.19;10522360;28;20569;-66
2022/09/30 06:25:28;;;;;;;8.32;5.82;;;;;;;7.76;68.85;99755.22;10517992;28;20051;-67
2022/09/30 06:30:30;;;;;;;7.00;5.50;;;;;;;7.84;68.68;99749.84;10511207;28;20040;-68
2022/09/30 06:35:35;;;;;;;7.95;5.43;;;;;;;7.92;68.82;99755.16;10516961;28;20112;-67
2022/09/30 06:40:37;;;;;;;8.38;5.20;;;;;;;8.05;68.57;99761.78;10522728;28;20045;-68
2022/09/30 06:45:38;;;;;;;7.30;5.05;;;;;;;8.16;68.37;99765.94;10511831;28;20036;-67
2022/09/30 06:50:40;;;;;;;7.30;4.53;;;;;;;8.25;68.37;99772.91;10513115;28;20075;-67
2022/09/30 06:55:53;;;;;;;9.32;5.30;;;;;;;8.41;68.65;99774.66;10506138;28;20070;-67
2022/09/30 07:01:01;;;;;;;7.97;5.47;;;;;;;8.52;68.19;99774.28;10523326;28;20060;-67
2022/09/30 07:06:04;;;;;;;;;;;;;;;8.65;68.21;99773.69;10515361;28;20045;-68
2022/09/30 07:11:11;;;;;;;7.57;5.03;;;;;;;8.82;67.94;99769.88;10500439;28;20297;-67
2022/09/30 07:16:13;;;;;;;9.63;5.43;;;;;;;8.95;68.17;99777.34;10511229;28;20040;-67
2022/09/30 07:21:15;;;;;;;10.20;5.38;;;;;;;9.08;68.59;99784.75;10517364;28;20633;-68
2022/09/30 07:26:21;;;;;;;7.13;5.65;;;;;;;9.21;68.73;99795.72;10509308;28;20051;-67
2022/09/30 07:31:25;;;;;;;9.25;5.68;;;;;;;9.41;68.32;99800.59;10496806;28;20055;-67
2022/09/30 07:36:38;;;;;;;5.85;5.20;;;;;;;9.63;68.91;99796.16;10510119;28;20037;-68
2022/09/30 07:41:39;;;;;;;8.57;5.13;;;;;;;9.80;68.17;99797.66;10504832;28;20052;-67
2022/09/30 07:46:42;;;;;;;7.65;4.97;;;;;;;9.89;67.99;99809.13;10519826;28;20036;-67
2022/09/30 07:51:44;;;;;;;7.00;5.50;;;;;;;10.01;68.23;99804.13;10500207;28;20044;-67
2022/09/30 07:56:46;;;;;;;10.05;6.40;;;;;;;10.16;67.85;99828.31;10516971;28;20067;-67
2022/09/30 08:02:13;;;;;;;10.60;5.97;;;;;;;10.28;67.43;99821.44;10498331;28;20060;-67
2022/09/30 08:07:16;;;;;;;8.07;5.60;;;;;;;10.27;67.63;99831.34;10515144;28;20075;-68
2022/09/30 08:12:17;;;;;;;7.68;5.68;;;;;;;10.40;67.18;99844.16;10501829;28;20055;-67
2022/09/30 08:17:19;;;;;;;7.70;5.38;;;;;;;10.46;67.41;99845.25;10524265;28;20044;-67
2022/09/30 08:22:22;;;;;;;7.45;5.57;;;;;;;10.47;67.39;99849.63;10522064;28;20040;-67
2022/09/30 08:27:24;;;;;;;7.50;5.47;;;;;;;10.64;67.32;99845.69;10528397;28;20284;-67
2022/09/30 08:32:29;;;;;;;8.40;6.25;;;;;;;10.81;66.71;99854.34;10516860;28;20048;-67
2022/09/30 08:37:30;;;;;;;9.20;6.00;;;;;;;10.95;66.90;99870.66;10503736;28;20036;-67
2022/09/30 08:42:38;;;;;;;9.48;6.75;;;;;;;10.96;67.06;99865.06;10526622;28;20052;-67
2022/09/30 08:47:55;;;;;;;7.28;6.32;;;;;;;11.17;66.63;99845.41;10514783;28;20056;-67
2022/09/30 08:53:01;;;;;;;8.73;6.43;;;;;;;11.38;66.45;99844.56;10522476;28;20074;-68
2022/09/30 08:58:03;;;;;;;11.55;6.47;;;;;;;11.58;66.54;99842.03;10509511;28;20340;-68
2022/09/30 09:03:05;;;;;;;6.68;5.90;;;;;;;11.82;66.25;99842.63;10515866;28;20048;-68
2022/09/30 09:08:27;;;;;;;8.65;5.82;;;;;;;12.02;66.12;99851.69;10501902;28;20045;-68
2022/09/30 09:13:50;;;;;;;10.77;6.40;;;;;;;12.33;65.67;99853.13;10515643;28;20036;-68
2022/09/30 09:19:07;;;;;;;14.93;7.22;;;;;;;12.20;66.23;99855.75;10518784;28;20037;-68
2022/09/30 09:24:17;;;;;;;8.13;6.43;;;;;;;12.50;65.80;99849.06;10514829;28;20036;-68
2022/09/30 09:29:42;;;;;;;9.77;6.30;;;;;;;12.51;65.41;99855.28;10514153;28;20800;-68
2022/09/30 09:34:50;;;;;;;11.27;7.22;;;;;;;12.80;65.47;99850.63;10519753;28;20043;-68
2022/09/30 09:40:02;;;;;;;11.68;6.07;;;;;;;13.05;64.88;99849.03;10516100;28;20024;-68
2022/09/30 09:45:13;;;;;;;11.80;6.80;;;;;;;13.33;64.21;99849.91;10524669;28;20074;-68
2022/09/30 09:50:26;;;;;;;8.00;6.40;;;;;;;13.63;64.01;99853.06;10523090;28;20052;-68
2022/09/30 09:55:27;;;;;;;7.22;5.97;;;;;;;13.86;63.74;99856.16;10523295;28;20045;-68
2022/09/30 10:06:11;;;;;;;9.30;6.53;;;;;;;14.28;62.42;99856.69;10512810;28;20047;-67
2022/09/30 10:11:21;;;;;;;6.65;5.93;;;;;;;14.59;61.71;99854.31;10521213;28;20059;-68
2022/09/30 10:16:36;;;;;;;8.80;6.45;;;;;;;14.87;61.39;99852.09;10511119;28;20040;-68
2022/09/30 10:21:37;;;;;;;8.07;6.43;;;;;;;15.20;60.85;99842.94;10498113;28;20051;-68
2022/09/30 10:26:43;;;;;;;9.20;6.38;;;;;;;15.50;59.81;99849.59;10492218;28;20071;-68
2022/09/30 10:31:50;;;;;;;7.00;4.70;;;;;;;15.74;59.34;99850.66;10509015;28;20040;-68
2022/09/30 10:37:00;;;;;;;6.03;4.15;;;;;;;15.91;58.71;99856.38;10502856;28;20113;-68
2022/09/30 10:42:16;;;;;;;9.15;4.82;;;;;;;16.00;57.95;99842.28;10500852;28;20078;-68
2022/09/30 10:47:25;;;;;;;7.40;4.65;;;;;;;16.03;57.31;99838.28;10515195;28;20051;-67
2022/09/30 10:52:31;;;;;;;7.68;4.00;;;;;;;16.20;56.30;99842.09;10510363;28;20495;-67
2022/09/30 10:57:35;;;;;;;8.38;4.15;;;;;;;16.36;56.10;99832.50;10513682;28;20024;-70
2022/09/30 11:02:40;;;;;;;9.80;4.13;;;;;;;16.57;54.96;99831.22;10528263;28;20041;-69
2022/09/30 11:07:52;;;;;;;5.13;4.10;;;;;;;16.63;54.22;99821.34;10513476;28;20049;-71
2022/09/30 11:13:18;;;;;;;5.13;3.30;;;;;;;16.95;53.81;99821.16;10510257;28;20056;-68
2022/09/30 11:18:51;;;;;;;8.13;3.75;;;;;;;17.12;52.91;99819.44;10516141;28;20051;-68
2022/09/30 11:24:01;;;;;;;7.03;3.08;;;;;;;17.36;52.41;99814.06;10497396;28;20075;-68
2022/09/30 11:29:25;;;;;;;5.18;3.53;;;;;;;17.42;51.93;99813.94;10512985;28;20395;-68
2022/09/30 11:34:43;;;;;;;2.60;2.25;;;;;;;17.69;51.13;99807.22;10503587;28;20060;-69
2022/09/30 11:40:18;;;;;;;4.65;2.42;;;;;;;17.95;50.51;99801.31;10497098;28;20033;-69
2022/09/30 11:45:38;;;;;;;5.72;2.40;;;;;;;18.36;49.55;99802.19;10518167;28;20041;-68
2022/09/30 11:51:17;;;;;;;6.30;2.92;;;;;;;18.71;48.20;99803.97;10528839;28;20071;-70
2022/09/30 11:56:45;;;;;;;6.40;2.10;;;;;;;18.96;46.23;99809.09;10530636;28;20051;-70
2022/09/30 12:01:48;;;;;;;;;;;;;;;19.39;47.26;99809.53;10520248;28;20044;-67
2022/09/30 12:07:17;;;;;;;6.30;1.83;;;;;;;19.39;44.60;99809.53;10514337;28;19920;-68
2022/09/30 12:12:19;;;;;;;4.20;1.27;;;;;;;19.89;43.53;99813.34;10514401;28;20033;-70
2022/09/30 12:17:30;;;;;;;2.88;1.23;;;;;;;20.23;42.75;99805.09;10508728;28;20455;-68
2022/09/30 12:22:40;;;;;;;7.10;1.60;;;;;;;20.18;41.57;99803.94;10489903;28;20037;-68
2022/09/30 12:30:15;;;;;;;2.72;1.33;;;;;;;20.75;40.74;99804.63;10523394;28;20056;-68
2022/09/30 12:33:42;;;;;;;7.18;1.35;;;;;;;21.17;40.65;99804.78;10509968;28;20074;-70
2022/09/30 12:39:07;;;;;;;2.45;1.40;;;;;;;21.46;39.25;99815.44;10486254;28;20220;-68
2022/09/30 12:44:34;;;;;;;3.22;0.90;;;;;;;21.13;38.93;99814.59;10486376;28;20040;-69
2022/09/30 12:49:39;;;;;;;1.17;0.70;;;;;;;20.92;39.17;99815.47;10463237;28;20033;-70
2022/09/30 12:54:46;;;;;;;5.57;0.75;;;;;;;21.53;37.91;99810.56;10487250;28;20037;-68
2022/09/30 12:59:59;;;;;;;3.75;0.80;;;;;;;21.35;37.72;99813.69;10484258;28;20041;-70
2022/09/30 13:05:45;;;;;;;3.60;0.93;;;;;;;20.74;38.90;99811.19;10484317;28;20044;-71
2022/09/30 13:10:57;;;;;;;3.78;1.45;;;;;;;20.62;38.60;99811.31;10487473;28;20055;-69
2022/09/30 13:16:04;;;;;;;2.90;0.90;;;;;;;20.71;38.00;99807.03;10468301;28;20091;-68
2022/09/30 13:21:07;;;;;;;2.10;0.60;;;;;;;20.72;38.45;99805.16;10469464;28;20120;-68
2022/09/30 13:26:33;;;;;;;1.50;0.63;;;;;;;20.92;38.17;99791.69;10480600;28;20046;-68
2022/09/30 13:31:44;;;;;;;1.17;0.60;;;;;;;20.71;37.83;99806.22;10446312;28;20048;-70
2022/09/30 13:36:51;;;;;;;2.33;0.57;;;;;;;20.50;38.30;99805.16;10434445;28;20057;-70
2022/09/30 13:42:00;;;;;;;1.42;0.90;;;;;;;20.06;39.08;99822.31;10430171;28;20045;-70
2022/09/30 13:47:20;;;;;;;3.17;0.50;;;;;;;20.48;38.74;99804.56;10445470;28;20041;-69
2022/09/30 13:52:30;;;;;;;2.40;0.60;;;;;;;20.97;38.70;99796.38;10458919;28;20052;-70
2022/09/30 13:57:47;;;;;;;0.65;0.30;;;;;;;21.17;37.93;99803.97;10438820;28;20080;-69
2022/09/30 14:03:25;;;;;;;0.60;0.40;;;;;;;21.08;36.96;99803.59;10438730;28;20049;-69
2022/09/30 14:08:49;;;;;;;1.77;0.50;;;;;;;20.72;37.97;99796.97;10416725;28;20049;-69
2022/09/30 14:14:16;;;;;;;1.23;0.70;;;;;;;20.88;37.34;99793.28;10447618;28;20080;-69
2022/09/30 14:19:31;;;;;;;3.87;0.50;;;;;;;20.65;37.50;99788.94;10459817;28;20068;-69
2022/09/30 14:24:34;;;;;;;2.60;0.50;;;;;;;20.82;36.97;99786.13;10459429;28;20038;-70
2022/09/30 14:29:44;;;;;;;1.42;0.43;;;;;;;20.90;37.30;99784.84;10452975;28;20140;-70
2022/09/30 14:34:47;;;;;;;2.47;0.40;;;;;;;20.64;36.83;99779.13;10473422;28;20068;-70
2022/09/30 14:39:48;;;;;;;3.33;0.40;;;;;;;20.66;36.29;99790.59;10480128;28;20831;-69
2022/09/30 14:44:53;;;;;;;3.05;0.30;;;;;;;20.51;36.29;99787.66;10482568;28;20044;-70
2022/09/30 14:49:54;;;;;;;2.25;0.47;;;;;;;20.68;36.23;99790.34;10477431;28;20053;-70
2022/09/30 14:54:56;;;;;;;2.15;0.45;;;;;;;20.54;36.08;99785.25;10488532;28;20340;-69
2022/09/30 15:00:20;;;;;;;1.23;0.40;;;;;;;20.39;36.54;99788.63;10508855;28;20041;-69
2022/09/30 15:05:21;;;;;;;2.28;0.50;;;;;;;20.33;36.97;99786.09;10514636;28;20067;-68
2022/09/30 15:10:23;;;;;;;2.03;0.50;;;;;;;20.52;36.93;99784.69;10509021;28;20040;-70
2022/09/30 15:15:32;;;;;;;2.08;0.50;;;;;;;20.50;36.30;99778.66;10504847;28;20052;-68
2022/09/30 15:20:35;;;;;;;2.50;0.28;;;;;;;20.46;36.47;99773.94;10495735;28;20071;-69
2022/09/30 15:25:37;;;;;;;3.22;0.30;;;;;;;20.23;36.27;99773.16;10503823;28;20227;-71
2022/09/30 15:30:41;;;;;;;1.25;0.40;;;;;;;20.19;36.94;99769.28;10499772;28;20045;-68
2022/09/30 15:35:44;;;;;;;1.88;0.40;;;;;;;20.09;37.28;99756.31;10513597;28;20044;-69
2022/09/30 15:40:57;;;;;;;2.47;0.43;;;;;;;20.02;37.51;99752.94;10487559;28;20097;-68
2022/09/30 15:46:18;;;;;;;1.63;0.88;;;;;;;19.93;37.98;99760.75;10499186;28;20188;-69
2022/09/30 15:51:35;;;;;;;1.35;0.45;;;;;;;19.78;38.41;99760.53;10517387;28;20044;-70
2022/09/30 15:56:36;;;;;;;5.50;2.50;;;;;;;19.58;38.54;99755.59;10497725;28;20031;-70
2022/09/30 16:01:43;;;;;;;1.75;0.40;;;;;;;19.53;38.78;99767.25;10506997;28;20313;-69
2022/09/30 16:06:53;;;;;;;2.17;0.40;;;;;;;19.35;38.91;99759.31;10505716;28;20036;-70
2022/09/30 16:12:07;;;;;;;1.60;0.50;;;;;;;19.17;39.25;99754.94;10510980;28;20041;-71
2022/09/30 16:17:25;;;;;;;1.83;0.40;;;;;;;19.01;39.08;99759.31;10511217;28;20041;-70
2022/09/30 16:22:39;;;;;;;0.40;0.30;;;;;;;18.90;39.62;99765.66;10518008;28;20037;-72
2022/09/30 16:27:41;;;;;;;2.47;0.38;;;;;;;18.76;39.82;99763.22;10489077;28;20048;-69
2022/09/30 16:32:46;;;;;;;1.88;0.57;;;;;;;18.58;40.46;99772.41;10493575;28;20037;-73
2022/09/30 16:37:49;;;;;;;2.15;0.57;;;;;;;18.38;40.78;99769.28;10486136;28;20071;-68
2022/09/30 16:42:53;;;;;;;2.90;0.40;;;;;;;18.30;41.22;99778.66;10481780;28;20049;-69
2022/09/30 16:47:56;;;;;;;2.30;0.60;;;;;;;18.16;41.89;99769.94;10462095;28;20048;-69
2022/09/30 16:52:58;;;;;;;1.95;0.57;;;;;;;18.03;42.18;99775.66;10486306;28;20094;-67
2022/09/30 16:57:59;;;;;;;1.33;0.52;;;;;;;17.91;42.56;99781.13;10467337;28;20044;-67
2022/09/30 17:03:01;;;;;;;3.55;1.15;;;;;;;17.80;42.90;99776.47;10481880;28;20131;-67
2022/09/30 17:08:02;;;;;;;1.33;0.70;;;;;;;17.61;43.68;99784.78;10486979;28;20080;-67
2022/09/30 17:13:04;;;;;;;2.13;0.85;;;;;;;17.40;44.30;99791.59;10483451;28;20076;-67
2022/09/30 17:18:08;;;;;;;5.15;1.17;;;;;;;17.17;45.24;99800.53;10489455;28;20049;-68
2022/09/30 17:23:11;;;;;;;3.15;1.10;;;;;;;16.97;45.70;99791.88;10475115;28;20087;-70
2022/09/30 17:28:13;;;;;;;6.65;3.05;;;;;;;16.79;46.21;99785.41;10465985;28;20593;-60
2022/09/30 17:33:17;;;;;;;4.90;2.22;;;;;;;16.58;46.85;99789.44;10473469;28;20053;-61
2022/09/30 17:38:18;;;;;;;6.45;3.33;;;;;;;16.37;47.59;99788.06;10476508;28;20537;-60
2022/09/30 17:43:20;;;;;;;7.72;4.22;;;;;;;16.13;48.38;99789.78;10479314;28;20062;-60
2022/09/30 17:48:22;;;;;;;9.50;4.35;;;;;;;15.93;49.08;99810.88;10477971;28;20060;-61
2022/09/30 17:53:23;;;;;;;15.60;5.70;;;;;;;15.71;49.69;99813.97;10471296;28;20502;-61
2022/09/30 17:58:25;;;;;;;14.57;7.60;;;;;;;15.52;50.44;99821.25;10476291;28;20072;-62
2022/09/30 18:03:27;;;;;;;29.75;14.40;;;;;;;15.33;51.13;99833.06;10477985;28;20098;-62
2022/09/30 18:08:28;;;;;;;15.60;10.18;;;;;;;15.11;51.92;99832.63;10462176;28;20080;-61
2022/09/30 18:13:30;;;;;;;17.95;9.10;;;;;;;14.98;52.29;99837.03;10457367;28;20041;-60
2022/09/30 18:18:33;;;;;;;20.70;10.98;;;;;;;14.83;52.80;99845.47;10479341;28;20116;-62
2022/09/30 18:23:35;;;;;;;45.00;18.83;;;;;;;14.69;53.25;99849.25;10474934;28;20044;-61
2022/09/30 18:28:36;;;;;;;39.35;21.05;;;;;;;14.57;53.53;99837.47;10477059;28;20055;-63
2022/09/30 18:33:38;;;;;;;37.25;19.08;;;;;;;14.43;53.90;99836.66;10469817;28;20055;-60
2022/09/30 18:38:39;;;;;;;25.52;14.05;;;;;;;14.29;54.58;99838.56;10459995;28;20053;-60
2022/09/30 18:43:44;;;;;;;25.27;13.25;;;;;;;14.12;54.93;99831.97;10469580;28;20098;-61
2022/09/30 18:48:48;;;;;;;28.35;15.35;;;;;;;13.98;55.56;99823.06;10475097;28;20440;-60
2022/09/30 18:53:56;;;;;;;23.23;12.50;;;;;;;13.86;55.83;99820.19;10479705;28;20040;-62
2022/09/30 18:59:03;;;;;;;;;;;;;;;13.73;55.39;99825.63;10478552;28;20102;-60
2022/09/30 19:04:04;;;;;;;22.88;10.60;;;;;;;13.53;56.03;99834.56;10471086;28;19968;-62
2022/09/30 19:09:07;;;;;;;15.90;8.88;;;;;;;13.43;56.91;99834.16;10476440;28;20064;-60
2022/09/30 19:14:11;;;;;;;20.92;9.25;;;;;;;13.34;57.05;99827.28;10474033;28;20109;-62
2022/09/30 19:19:12;;;;;;;46.88;18.63;;;;;;;13.18;57.45;99832.00;10474693;28;20098;-59
2022/09/30 19:24:15;;;;;;;20.05;9.43;;;;;;;13.02;58.31;99835.09;10462099;28;20123;-60
2022/09/30 19:29:17;;;;;;;14.00;8.20;;;;;;;12.91;58.19;99839.22;10472791;28;20537;-62
2022/09/30 19:34:19;;;;;;;17.80;9.98;;;;;;;12.84;58.42;99847.31;10471091;28;20052;-60
2022/09/30 19:39:32;;;;;;;15.75;9.38;;;;;;;12.77;58.94;99840.22;10480796;28;20060;-62
2022/09/30 19:44:45;;;;;;;14.70;7.38;;;;;;;12.71;59.03;99841.88;10460567;28;20079;-60
2022/09/30 19:49:47;;;;;;;8.52;4.65;;;;;;;12.58;59.42;99844.50;10478909;28;20052;-61
2022/09/30 19:54:49;;;;;;;10.55;5.45;;;;;;;12.48;59.86;99845.72;10482145;28;20569;-61
2022/09/30 19:59:52;;;;;;;8.18;5.35;;;;;;;12.39;59.91;99857.72;10464701;28;20135;-62
2022/09/30 20:04:53;;;;;;;9.50;5.63;;;;;;;12.33;60.07;99866.59;10482111;28;20378;-62
2022/09/30 20:09:55;;;;;;;9.77;5.32;;;;;;;12.26;60.24;99861.19;10485423;28;20040;-64
2022/09/30 20:20:35;;;;;;;10.18;4.63;;;;;;;12.07;60.76;99856.50;10484499;28;20064;-61
2022/09/30 20:25:37;;;;;;;8.55;4.60;;;;;;;11.99;60.81;99865.56;10487725;28;20054;-61
2022/09/30 20:30:47;;;;;;;8.10;5.57;;;;;;;11.88;61.04;99869.59;10486603;28;20090;-60
2022/09/30 20:35:49;;;;;;;11.68;8.70;;;;;;;11.74;61.43;99867.03;10479025;28;20036;-62
2022/09/30 20:40:55;;;;;;;13.25;7.90;;;;;;;11.69;61.78;99857.66;10478771;28;20071;-60
2022/09/30 20:46:02;;;;;;;11.38;7.35;;;;;;;11.65;61.67;99864.47;10481864;28;20045;-61
2022/09/30 20:51:08;;;;;;;12.20;7.50;;;;;;;11.58;61.67;99870.84;10480001;28;20043;-60
2022/09/30 20:56:14;;;;;;;12.33;7.17;;;;;;;11.52;61.90;99880.50;10472176;28;20064;-60
2022/09/30 21:01:17;;;;;;;10.50;6.68;;;;;;;11.48;62.12;99888.13;10480950;28;20071;-61
2022/09/30 21:06:23;;;;;;;10.30;6.55;;;;;;;11.44;62.19;99894.09;10470531;28;20047;-62
2022/09/30 21:11:25;;;;;;;12.73;6.63;;;;;;;11.38;62.49;99886.81;10481367;28;20156;-64
2022/09/30 21:16:28;;;;;;;13.88;6.55;;;;;;;11.35;62.54;99884.50;10475803;28;20111;-61
2022/09/30 21:21:29;;;;;;;12.85;8.27;;;;;;;11.29;62.66;99876.19;10483110;28;20044;-60
2022/09/30 21:26:31;;;;;;;13.32;8.23;;;;;;;11.24;63.01;99872.41;10480301;28;20064;-60
2022/09/30 21:31:33;;;;;;;13.73;9.00;;;;;;;11.16;63.24;99867.13;10480313;28;20072;-61
2022/09/30 21:36:37;;;;;;;14.25;8.65;;;;;;;11.11;63.16;99854.25;10475813;28;20044;-61
2022/09/30 21:41:39;;;;;;;9.75;6.95;;;;;;;11.07;63.70;99859.19;10469219;28;20055;-61
2022/09/30 21:46:42;;;;;;;12.60;7.63;;;;;;;11.04;63.53;99856.06;10473679;28;20377;-62
2022/09/30 21:51:50;;;;;;;15.68;7.03;;;;;;;10.98;63.71;99848.72;10484428;28;20060;-62
2022/09/30 21:56:52;;;;;;;11.02;7.03;;;;;;;10.95;63.83;99846.44;10480155;28;20040;-62
2022/09/30 22:01:53;;;;;;;18.13;6.70;;;;;;;10.93;63.93;99845.78;10481481;28;20539;-62
2022/09/30 22:06:55;;;;;;;13.38;7.38;;;;;;;10.89;64.28;99840.78;10478369;28;20127;-64
2022/09/30 22:11:57;;;;;;;12.05;6.85;;;;;;;10.89;64.61;99848.84;10462525;28;20060;-61
2022/09/30 22:16:58;;;;;;;9.65;6.57;;;;;;;10.96;64.95;99835.50;10477147;28;20564;-59
2022/09/30 22:22:00;;;;;;;12.25;6.63;;;;;;;11.01;64.99;99830.34;10478526;28;20447;-61
2022/09/30 22:27:06;;;;;;;12.82;6.80;;;;;;;11.03;64.91;99828.31;10459070;28;20082;-61
2022/09/30 22:32:07;;;;;;;16.70;6.85;;;;;;;11.03;65.01;99814.03;10472352;28;20433;-60
2022/09/30 22:42:28;;;;;;;7.70;5.50;;;;;;;11.00;65.09;99830.53;10474682;28;20083;-60
2022/09/30 22:47:30;;;;;;;14.32;6.38;;;;;;;10.97;65.09;99821.00;10473461;28;20048;-62
2022/09/30 22:52:32;;;;;;;8.70;6.03;;;;;;;10.94;65.13;99820.56;10460633;28;20048;-59
2022/09/30 22:57:33;;;;;;;10.80;6.45;;;;;;;10.91;65.05;99814.53;10475331;28;20066;-60
2022/09/30 23:02:35;;;;;;;13.45;5.55;;;;;;;10.89;65.18;99807.69;10475256;28;20065;-60
2022/09/30 23:07:36;;;;;;;16.58;7.03;;;;;;;10.85;65.33;99822.53;10482027;28;20041;-61
2022/09/30 23:12:38;;;;;;;18.63;10.02;;;;;;;10.78;65.17;99829.69;10478578;28;20044;-59
2022/09/30 23:17:39;;;;;;;11.80;8.05;;;;;;;10.70;65.25;99834.19;10461593;28;20080;-62
2022/09/30 23:22:40;;;;;;;12.55;8.98;;;;;;;10.66;65.12;99830.22;10459942;28;20037;-59
2022/09/30 23:27:46;;;;;;;9.90;6.95;;;;;;;10.61;65.85;99834.50;10474296;28;20143;-61
2022/09/30 23:32:47;;;;;;;12.50;7.30;;;;;;;10.66;66.39;99832.91;10475262;28;20154;-60
2022/09/30 23:37:51;;;;;;;9.70;6.78;;;;;;;10.69;67.01;99831.69;10471923;28;20151;-59
2022/09/30 23:42:53;;;;;;;11.02;6.47;;;;;;;10.84;66.92;99824.41;10441521;28;20063;-61
2022/09/30 23:47:56;;;;;;;10.85;6.30;;;;;;;10.93;66.73;99810.84;10471837;28;20047;-59
2022/09/30 23:52:58;;;;;;;12.20;7.18;;;;;;;11.02;66.99;99806.97;10470768;28;20087;-60
2022/09/30 23:57:59;;;;;;;9.88;6.28;;;;;;;11.04;67.14;99808.47;10473661;28;20064;-59
